sensor_id;sensor_type;location;lat;lon;timestamp;P1;durP1;ratioP1;P2;durP2;ratioP2
53285;SDS011;39171;45.550;12.074;2023-09-19T00:01:28;1.73;;;1.17;;
53285;SDS011;39171;45.550;12.074;2023-09-19T00:07:31;2.25;;;1.40;;
53285;SDS011;39171;45.550;12.074;2023-09-19T00:13:33;1.88;;;1.30;;
53285;SDS011;39171;45.550;12.074;2023-09-19T00:19:36;2.17;;;1.23;;
53285;SDS011;39171;45.550;12.074;2023-09-19T00:25:38;5.07;;;1.50;;
53285;SDS011;39171;45.550;12.074;2023-09-19T00:31:42;1.95;;;1.52;;
53285;SDS011;39171;45.550;12.074;2023-09-19T00:37:44;2.97;;;1.70;;
53285;SDS011;39171;45.550;12.074;2023-09-19T00:43:46;2.53;;;1.70;;
53285;SDS011;39171;45.550;12.074;2023-09-19T00:49:48;3.80;;;1.73;;
53285;SDS011;39171;45.550;12.074;2023-09-19T00:55:53;2.45;;;1.60;;
53285;SDS011;39171;45.550;12.074;2023-09-19T01:01:56;2.47;;;1.90;;
53285;SDS011;39171;45.550;12.074;2023-09-19T01:08:01;2.95;;;1.83;;
53285;SDS011;39171;45.550;12.074;2023-09-19T01:14:18;4.38;;;2.15;;
53285;SDS011;39171;45.550;12.074;2023-09-19T01:20:33;2.38;;;1.77;;
53285;SDS011;39171;45.550;12.074;2023-09-19T01:33:06;2.00;;;1.63;;
53285;SDS011;39171;45.550;12.074;2023-09-19T01:39:10;3.13;;;2.15;;
53285;SDS011;39171;45.550;12.074;2023-09-19T01:45:24;2.97;;;2.08;;
53285;SDS011;39171;45.550;12.074;2023-09-19T01:52:04;3.30;;;2.33;;
53285;SDS011;39171;45.550;12.074;2023-09-19T01:58:15;3.30;;;2.38;;
53285;SDS011;39171;45.550;12.074;2023-09-19T02:04:23;3.77;;;2.37;;
53285;SDS011;39171;45.550;12.074;2023-09-19T02:10:24;2.72;;;2.00;;
53285;SDS011;39171;45.550;12.074;2023-09-19T02:16:26;3.08;;;2.17;;
53285;SDS011;39171;45.550;12.074;2023-09-19T02:22:27;3.22;;;2.55;;
53285;SDS011;39171;45.550;12.074;2023-09-19T02:28:30;3.28;;;2.70;;
53285;SDS011;39171;45.550;12.074;2023-09-19T02:34:36;2.67;;;2.15;;
53285;SDS011;39171;45.550;12.074;2023-09-19T02:40:37;2.75;;;2.17;;
53285;SDS011;39171;45.550;12.074;2023-09-19T02:46:42;2.65;;;2.08;;
53285;SDS011;39171;45.550;12.074;2023-09-19T02:52:43;3.15;;;2.10;;
53285;SDS011;39171;45.550;12.074;2023-09-19T02:58:46;3.33;;;2.40;;
53285;SDS011;39171;45.550;12.074;2023-09-19T03:04:49;2.40;;;2.13;;
53285;SDS011;39171;45.550;12.074;2023-09-19T03:10:52;2.40;;;1.90;;
53285;SDS011;39171;45.550;12.074;2023-09-19T03:16:53;2.50;;;1.90;;
53285;SDS011;39171;45.550;12.074;2023-09-19T03:22:55;5.45;;;2.10;;
53285;SDS011;39171;45.550;12.074;2023-09-19T03:28:58;2.72;;;1.92;;
53285;SDS011;39171;45.550;12.074;2023-09-19T03:35:00;2.50;;;1.48;;
53285;SDS011;39171;45.550;12.074;2023-09-19T03:41:02;3.53;;;1.90;;
53285;SDS011;39171;45.550;12.074;2023-09-19T03:47:04;2.35;;;1.65;;
53285;SDS011;39171;45.550;12.074;2023-09-19T03:53:08;3.20;;;1.80;;
53285;SDS011;39171;45.550;12.074;2023-09-19T03:59:10;3.03;;;1.75;;
53285;SDS011;39171;45.550;12.074;2023-09-19T04:05:13;3.97;;;1.95;;
53285;SDS011;39171;45.550;12.074;2023-09-19T04:11:14;3.50;;;2.38;;
53285;SDS011;39171;45.550;12.074;2023-09-19T04:17:16;3.28;;;2.10;;
53285;SDS011;39171;45.550;12.074;2023-09-19T04:23:18;4.60;;;2.60;;
53285;SDS011;39171;45.550;12.074;2023-09-19T04:29:21;7.43;;;3.20;;
53285;SDS011;39171;45.550;12.074;2023-09-19T04:35:23;4.38;;;2.70;;
53285;SDS011;39171;45.550;12.074;2023-09-19T04:41:26;3.28;;;2.42;;
53285;SDS011;39171;45.550;12.074;2023-09-19T04:47:27;4.25;;;3.00;;
53285;SDS011;39171;45.550;12.074;2023-09-19T04:53:29;3.55;;;2.75;;
53285;SDS011;39171;45.550;12.074;2023-09-19T04:59:30;3.90;;;2.95;;
53285;SDS011;39171;45.550;12.074;2023-09-19T05:05:32;3.53;;;2.75;;
53285;SDS011;39171;45.550;12.074;2023-09-19T05:11:35;3.75;;;3.10;;
53285;SDS011;39171;45.550;12.074;2023-09-19T05:17:39;4.90;;;3.08;;
53285;SDS011;39171;45.550;12.074;2023-09-19T05:23:40;4.45;;;3.00;;
53285;SDS011;39171;45.550;12.074;2023-09-19T05:29:46;5.60;;;3.65;;
53285;SDS011;39171;45.550;12.074;2023-09-19T05:35:48;4.28;;;3.00;;
53285;SDS011;39171;45.550;12.074;2023-09-19T05:41:50;5.63;;;3.47;;
53285;SDS011;39171;45.550;12.074;2023-09-19T05:47:52;3.85;;;2.97;;
53285;SDS011;39171;45.550;12.074;2023-09-19T05:53:57;4.60;;;3.60;;
53285;SDS011;39171;45.550;12.074;2023-09-19T05:59:59;4.35;;;3.40;;
53285;SDS011;39171;45.550;12.074;2023-09-19T06:06:01;4.22;;;3.42;;
53285;SDS011;39171;45.550;12.074;2023-09-19T06:12:03;4.15;;;3.17;;
53285;SDS011;39171;45.550;12.074;2023-09-19T06:18:09;5.20;;;3.47;;
53285;SDS011;39171;45.550;12.074;2023-09-19T06:24:14;2.90;;;2.27;;
53285;SDS011;39171;45.550;12.074;2023-09-19T06:30:16;4.15;;;3.33;;
53285;SDS011;39171;45.550;12.074;2023-09-19T06:36:18;3.75;;;3.05;;
53285;SDS011;39171;45.550;12.074;2023-09-19T06:42:21;3.90;;;2.72;;
53285;SDS011;39171;45.550;12.074;2023-09-19T06:48:23;3.42;;;2.58;;
53285;SDS011;39171;45.550;12.074;2023-09-19T06:54:28;4.35;;;3.00;;
53285;SDS011;39171;45.550;12.074;2023-09-19T07:00:32;4.75;;;2.60;;
53285;SDS011;39171;45.550;12.074;2023-09-19T07:06:37;3.67;;;2.38;;
53285;SDS011;39171;45.550;12.074;2023-09-19T07:12:39;3.00;;;2.17;;
53285;SDS011;39171;45.550;12.074;2023-09-19T07:18:42;2.75;;;2.00;;
53285;SDS011;39171;45.550;12.074;2023-09-19T07:24:45;2.97;;;2.08;;
53285;SDS011;39171;45.550;12.074;2023-09-19T07:30:47;2.17;;;1.83;;
53285;SDS011;39171;45.550;12.074;2023-09-19T07:36:49;3.10;;;2.30;;
53285;SDS011;39171;45.550;12.074;2023-09-19T07:42:51;2.40;;;2.00;;
53285;SDS011;39171;45.550;12.074;2023-09-19T07:48:52;2.42;;;2.03;;
53285;SDS011;39171;45.550;12.074;2023-09-19T07:54:54;2.60;;;1.95;;
53285;SDS011;39171;45.550;12.074;2023-09-19T08:01:10;2.17;;;1.58;;
53285;SDS011;39171;45.550;12.074;2023-09-19T08:07:13;1.50;;;1.17;;
53285;SDS011;39171;45.550;12.074;2023-09-19T08:13:18;1.95;;;1.25;;
53285;SDS011;39171;45.550;12.074;2023-09-19T08:19:19;2.05;;;1.10;;
53285;SDS011;39171;45.550;12.074;2023-09-19T08:25:24;1.73;;;1.20;;
53285;SDS011;39171;45.550;12.074;2023-09-19T08:31:29;1.48;;;1.10;;
53285;SDS011;39171;45.550;12.074;2023-09-19T08:37:31;1.25;;;1.02;;
53285;SDS011;39171;45.550;12.074;2023-09-19T08:43:35;1.92;;;1.27;;
53285;SDS011;39171;45.550;12.074;2023-09-19T08:49:37;1.60;;;1.05;;
53285;SDS011;39171;45.550;12.074;2023-09-19T08:56:07;2.53;;;1.90;;
53285;SDS011;39171;45.550;12.074;2023-09-19T09:02:11;3.65;;;2.38;;
53285;SDS011;39171;45.550;12.074;2023-09-19T09:08:14;2.33;;;1.52;;
53285;SDS011;39171;45.550;12.074;2023-09-19T09:14:17;3.08;;;2.28;;
53285;SDS011;39171;45.550;12.074;2023-09-19T09:20:20;3.10;;;2.25;;
53285;SDS011;39171;45.550;12.074;2023-09-19T09:26:41;2.85;;;2.30;;
53285;SDS011;39171;45.550;12.074;2023-09-19T09:32:48;3.28;;;2.00;;
53285;SDS011;39171;45.550;12.074;2023-09-19T09:39:15;3.75;;;2.42;;
53285;SDS011;39171;45.550;12.074;2023-09-19T09:45:35;5.25;;;3.92;;
53285;SDS011;39171;45.550;12.074;2023-09-19T09:51:37;4.53;;;3.33;;
53285;SDS011;39171;45.550;12.074;2023-09-19T09:57:40;4.82;;;3.75;;
53285;SDS011;39171;45.550;12.074;2023-09-19T10:03:42;4.32;;;3.13;;
53285;SDS011;39171;45.550;12.074;2023-09-19T10:09:48;3.55;;;2.47;;
53285;SDS011;39171;45.550;12.074;2023-09-19T10:15:50;3.90;;;2.50;;
53285;SDS011;39171;45.550;12.074;2023-09-19T10:21:55;3.97;;;2.55;;
53285;SDS011;39171;45.550;12.074;2023-09-19T10:28:00;3.90;;;2.92;;
53285;SDS011;39171;45.550;12.074;2023-09-19T10:34:07;3.85;;;2.80;;
53285;SDS011;39171;45.550;12.074;2023-09-19T10:40:10;4.03;;;2.83;;
53285;SDS011;39171;45.550;12.074;2023-09-19T10:46:13;7.68;;;3.72;;
53285;SDS011;39171;45.550;12.074;2023-09-19T10:52:17;4.82;;;3.60;;
53285;SDS011;39171;45.550;12.074;2023-09-19T10:58:25;3.47;;;3.15;;
53285;SDS011;39171;45.550;12.074;2023-09-19T11:04:43;5.28;;;3.58;;
53285;SDS011;39171;45.550;12.074;2023-09-19T11:10:49;5.50;;;3.80;;
53285;SDS011;39171;45.550;12.074;2023-09-19T11:23:21;5.00;;;3.33;;
53285;SDS011;39171;45.550;12.074;2023-09-19T11:29:28;4.88;;;3.30;;
53285;SDS011;39171;45.550;12.074;2023-09-19T11:48:47;6.05;;;4.18;;
53285;SDS011;39171;45.550;12.074;2023-09-19T11:54:56;6.82;;;4.65;;
53285;SDS011;39171;45.550;12.074;2023-09-19T12:00:58;6.25;;;3.85;;
53285;SDS011;39171;45.550;12.074;2023-09-19T12:07:02;8.77;;;3.80;;
53285;SDS011;39171;45.550;12.074;2023-09-19T12:13:10;5.82;;;3.40;;
53285;SDS011;39171;45.550;12.074;2023-09-19T12:19:25;4.65;;;3.00;;
53285;SDS011;39171;45.550;12.074;2023-09-19T12:25:41;11.88;;;4.88;;
53285;SDS011;39171;45.550;12.074;2023-09-19T12:31:54;4.03;;;2.88;;
53285;SDS011;39171;45.550;12.074;2023-09-19T12:37:59;5.63;;;3.28;;
53285;SDS011;39171;45.550;12.074;2023-09-19T12:44:01;4.93;;;3.00;;
53285;SDS011;39171;45.550;12.074;2023-09-19T12:56:15;4.68;;;3.10;;
53285;SDS011;39171;45.550;12.074;2023-09-19T13:02:18;5.18;;;3.30;;
53285;SDS011;39171;45.550;12.074;2023-09-19T13:08:31;4.82;;;3.08;;
53285;SDS011;39171;45.550;12.074;2023-09-19T13:14:39;10.07;;;3.72;;
53285;SDS011;39171;45.550;12.074;2023-09-19T13:20:53;4.57;;;2.83;;
53285;SDS011;39171;45.550;12.074;2023-09-19T13:27:23;3.90;;;2.60;;
53285;SDS011;39171;45.550;12.074;2023-09-19T13:33:29;5.75;;;3.50;;
53285;SDS011;39171;45.550;12.074;2023-09-19T13:39:31;6.85;;;3.08;;
53285;SDS011;39171;45.550;12.074;2023-09-19T13:45:33;6.95;;;2.92;;
53285;SDS011;39171;45.550;12.074;2023-09-19T13:51:34;7.15;;;3.20;;
53285;SDS011;39171;45.550;12.074;2023-09-19T13:57:36;7.55;;;2.40;;
53285;SDS011;39171;45.550;12.074;2023-09-19T14:03:37;5.32;;;2.85;;
53285;SDS011;39171;45.550;12.074;2023-09-19T14:09:39;7.38;;;2.83;;
53285;SDS011;39171;45.550;12.074;2023-09-19T14:15:41;5.45;;;2.20;;
53285;SDS011;39171;45.550;12.074;2023-09-19T14:21:43;3.13;;;2.13;;
53285;SDS011;39171;45.550;12.074;2023-09-19T14:27:46;3.70;;;2.45;;
53285;SDS011;39171;45.550;12.074;2023-09-19T14:33:53;3.97;;;2.65;;
53285;SDS011;39171;45.550;12.074;2023-09-19T14:39:57;4.10;;;2.75;;
53285;SDS011;39171;45.550;12.074;2023-09-19T14:46:08;4.40;;;2.80;;
53285;SDS011;39171;45.550;12.074;2023-09-19T14:52:11;4.32;;;2.75;;
53285;SDS011;39171;45.550;12.074;2023-09-19T14:58:13;6.40;;;3.15;;
53285;SDS011;39171;45.550;12.074;2023-09-19T15:04:15;5.35;;;2.55;;
53285;SDS011;39171;45.550;12.074;2023-09-19T15:10:16;5.45;;;2.40;;
53285;SDS011;39171;45.550;12.074;2023-09-19T15:16:19;4.35;;;2.30;;
53285;SDS011;39171;45.550;12.074;2023-09-19T15:22:21;6.55;;;2.17;;
53285;SDS011;39171;45.550;12.074;2023-09-19T15:28:23;3.63;;;2.05;;
53285;SDS011;39171;45.550;12.074;2023-09-19T15:34:24;3.00;;;1.85;;
53285;SDS011;39171;45.550;12.074;2023-09-19T15:40:26;3.63;;;1.98;;
53285;SDS011;39171;45.550;12.074;2023-09-19T15:46:36;3.55;;;2.20;;
53285;SDS011;39171;45.550;12.074;2023-09-19T15:52:38;2.78;;;1.67;;
53285;SDS011;39171;45.550;12.074;2023-09-19T15:58:40;2.58;;;1.40;;
53285;SDS011;39171;45.550;12.074;2023-09-19T16:04:46;2.33;;;1.30;;
53285;SDS011;39171;45.550;12.074;2023-09-19T16:10:47;1.67;;;1.13;;
53285;SDS011;39171;45.550;12.074;2023-09-19T16:16:49;1.55;;;1.10;;
53285;SDS011;39171;45.550;12.074;2023-09-19T16:22:54;2.00;;;1.10;;
53285;SDS011;39171;45.550;12.074;2023-09-19T16:28:56;1.10;;;0.80;;
53285;SDS011;39171;45.550;12.074;2023-09-19T16:35:06;1.30;;;0.80;;
53285;SDS011;39171;45.550;12.074;2023-09-19T16:41:09;1.58;;;0.70;;
53285;SDS011;39171;45.550;12.074;2023-09-19T16:47:12;1.20;;;0.70;;
53285;SDS011;39171;45.550;12.074;2023-09-19T16:53:14;1.10;;;0.70;;
53285;SDS011;39171;45.550;12.074;2023-09-19T16:59:17;1.20;;;0.70;;
53285;SDS011;39171;45.550;12.074;2023-09-19T17:05:20;0.82;;;0.63;;
53285;SDS011;39171;45.550;12.074;2023-09-19T17:11:23;1.00;;;0.60;;
53285;SDS011;39171;45.550;12.074;2023-09-19T17:17:24;1.45;;;0.77;;
53285;SDS011;39171;45.550;12.074;2023-09-19T17:23:27;1.20;;;0.50;;
53285;SDS011;39171;45.550;12.074;2023-09-19T17:29:29;1.00;;;0.57;;
53285;SDS011;39171;45.550;12.074;2023-09-19T17:35:31;1.33;;;0.90;;
53285;SDS011;39171;45.550;12.074;2023-09-19T17:41:32;1.23;;;0.98;;
53285;SDS011;39171;45.550;12.074;2023-09-19T17:47:34;1.88;;;0.90;;
53285;SDS011;39171;45.550;12.074;2023-09-19T17:53:36;1.13;;;0.75;;
53285;SDS011;39171;45.550;12.074;2023-09-19T17:59:38;1.20;;;0.70;;
53285;SDS011;39171;45.550;12.074;2023-09-19T18:05:43;1.40;;;0.82;;
53285;SDS011;39171;45.550;12.074;2023-09-19T18:11:45;1.83;;;1.00;;
53285;SDS011;39171;45.550;12.074;2023-09-19T18:17:47;1.48;;;0.85;;
53285;SDS011;39171;45.550;12.074;2023-09-19T18:23:54;2.08;;;0.90;;
53285;SDS011;39171;45.550;12.074;2023-09-19T18:37:18;1.30;;;0.90;;
53285;SDS011;39171;45.550;12.074;2023-09-19T18:43:21;1.98;;;1.17;;
53285;SDS011;39171;45.550;12.074;2023-09-19T18:49:40;1.37;;;1.17;;
53285;SDS011;39171;45.550;12.074;2023-09-19T18:56:08;2.67;;;1.60;;
53285;SDS011;39171;45.550;12.074;2023-09-19T19:02:54;1.30;;;0.80;;
53285;SDS011;39171;45.550;12.074;2023-09-19T19:09:56;1.80;;;1.05;;
53285;SDS011;39171;45.550;12.074;2023-09-19T19:16:37;2.20;;;1.38;;
53285;SDS011;39171;45.550;12.074;2023-09-19T19:23:07;3.33;;;1.40;;
53285;SDS011;39171;45.550;12.074;2023-09-19T19:29:51;2.30;;;1.40;;
53285;SDS011;39171;45.550;12.074;2023-09-19T19:36:05;2.03;;;1.40;;
53285;SDS011;39171;45.550;12.074;2023-09-19T19:42:15;2.25;;;1.27;;
53285;SDS011;39171;45.550;12.074;2023-09-19T19:48:23;3.25;;;2.17;;
53285;SDS011;39171;45.550;12.074;2023-09-19T20:01:05;3.63;;;1.90;;
53285;SDS011;39171;45.550;12.074;2023-09-19T20:07:34;2.63;;;1.98;;
53285;SDS011;39171;45.550;12.074;2023-09-19T20:21:08;3.00;;;1.92;;
53285;SDS011;39171;45.550;12.074;2023-09-19T20:27:20;3.50;;;2.08;;
53285;SDS011;39171;45.550;12.074;2023-09-19T20:33:27;2.50;;;1.90;;
53285;SDS011;39171;45.550;12.074;2023-09-19T20:39:40;2.72;;;1.50;;
53285;SDS011;39171;45.550;12.074;2023-09-19T20:45:49;2.58;;;1.77;;
53285;SDS011;39171;45.550;12.074;2023-09-19T20:52:06;3.72;;;1.90;;
53285;SDS011;39171;45.550;12.074;2023-09-19T20:59:09;2.50;;;1.83;;
53285;SDS011;39171;45.550;12.074;2023-09-19T21:05:25;2.53;;;1.50;;
53285;SDS011;39171;45.550;12.074;2023-09-19T21:11:27;2.38;;;1.55;;
53285;SDS011;39171;45.550;12.074;2023-09-19T21:17:28;2.58;;;1.67;;
53285;SDS011;39171;45.550;12.074;2023-09-19T21:23:30;2.28;;;1.63;;
53285;SDS011;39171;45.550;12.074;2023-09-19T21:29:38;2.00;;;1.60;;
53285;SDS011;39171;45.550;12.074;2023-09-19T21:35:43;2.85;;;1.65;;
53285;SDS011;39171;45.550;12.074;2023-09-19T21:42:02;2.08;;;1.50;;
53285;SDS011;39171;45.550;12.074;2023-09-19T21:48:06;2.63;;;1.77;;
53285;SDS011;39171;45.550;12.074;2023-09-19T21:54:11;2.30;;;1.60;;
53285;SDS011;39171;45.550;12.074;2023-09-19T22:00:15;2.58;;;1.60;;
53285;SDS011;39171;45.550;12.074;2023-09-19T22:06:55;2.70;;;1.63;;
53285;SDS011;39171;45.550;12.074;2023-09-19T22:13:47;1.83;;;1.30;;
53285;SDS011;39171;45.550;12.074;2023-09-19T22:20:14;2.20;;;1.60;;
53285;SDS011;39171;45.550;12.074;2023-09-19T22:26:27;2.13;;;1.42;;
53285;SDS011;39171;45.550;12.074;2023-09-19T22:32:45;2.72;;;1.58;;
53285;SDS011;39171;45.550;12.074;2023-09-19T22:39:03;2.53;;;1.65;;
53285;SDS011;39171;45.550;12.074;2023-09-19T22:45:26;2.72;;;1.65;;
53285;SDS011;39171;45.550;12.074;2023-09-19T22:51:58;2.15;;;1.55;;
53285;SDS011;39171;45.550;12.074;2023-09-19T22:58:26;2.63;;;1.48;;
53285;SDS011;39171;45.550;12.074;2023-09-19T23:04:39;2.67;;;1.63;;
53285;SDS011;39171;45.550;12.074;2023-09-19T23:10:47;2.45;;;1.60;;
53285;SDS011;39171;45.550;12.074;2023-09-19T23:23:15;2.03;;;1.40;;
53285;SDS011;39171;45.550;12.074;2023-09-19T23:29:18;2.40;;;1.40;;
53285;SDS011;39171;45.550;12.074;2023-09-19T23:35:20;2.45;;;1.45;;
53285;SDS011;39171;45.550;12.074;2023-09-19T23:41:23;2.33;;;1.40;;
53285;SDS011;39171;45.550;12.074;2023-09-19T23:47:25;2.13;;;1.38;;
53285;SDS011;39171;45.550;12.074;2023-09-19T23:53:28;1.90;;;1.20;;
53285;SDS011;39171;45.550;12.074;2023-09-19T23:59:34;1.63;;;1.17;;
